sensor_id;sensor_type;location;lat;lon;timestamp;P1;durP1;ratioP1;P2;durP2;ratioP2
20734;SDS011;10528;52.124;5.196;2022-12-19T00:01:41;38.15;;;24.10;;
20734;SDS011;10528;52.124;5.196;2022-12-19T00:04:09;40.63;;;23.08;;
20734;SDS011;10528;52.124;5.196;2022-12-19T00:06:40;36.58;;;23.08;;
20734;SDS011;10528;52.124;5.196;2022-12-19T00:09:09;38.10;;;23.30;;
20734;SDS011;10528;52.124;5.196;2022-12-19T00:11:38;38.38;;;24.02;;
20734;SDS011;10528;52.124;5.196;2022-12-19T00:14:06;42.40;;;23.60;;
20734;SDS011;10528;52.124;5.196;2022-12-19T00:16:36;37.72;;;22.48;;
20734;SDS011;10528;52.124;5.196;2022-12-19T00:19:03;41.92;;;24.08;;
20734;SDS011;10528;52.124;5.196;2022-12-19T00:21:32;40.55;;;21.98;;
20734;SDS011;10528;52.124;5.196;2022-12-19T00:24:01;37.83;;;21.45;;
20734;SDS011;10528;52.124;5.196;2022-12-19T00:26:47;41.28;;;23.05;;
20734;SDS011;10528;52.124;5.196;2022-12-19T00:29:15;40.35;;;23.45;;
20734;SDS011;10528;52.124;5.196;2022-12-19T00:31:42;37.33;;;23.15;;
20734;SDS011;10528;52.124;5.196;2022-12-19T00:34:12;36.60;;;22.38;;
20734;SDS011;10528;52.124;5.196;2022-12-19T00:36:39;36.00;;;22.17;;
20734;SDS011;10528;52.124;5.196;2022-12-19T00:39:06;38.13;;;23.42;;
20734;SDS011;10528;52.124;5.196;2022-12-19T00:41:36;34.75;;;22.02;;
20734;SDS011;10528;52.124;5.196;2022-12-19T00:44:11;36.17;;;22.30;;
20734;SDS011;10528;52.124;5.196;2022-12-19T00:46:41;35.58;;;22.13;;
20734;SDS011;10528;52.124;5.196;2022-12-19T00:49:15;32.40;;;21.52;;
20734;SDS011;10528;52.124;5.196;2022-12-19T00:51:42;34.47;;;22.48;;
20734;SDS011;10528;52.124;5.196;2022-12-19T00:54:09;34.00;;;21.48;;
20734;SDS011;10528;52.124;5.196;2022-12-19T00:56:36;34.55;;;21.63;;
20734;SDS011;10528;52.124;5.196;2022-12-19T00:59:06;31.88;;;20.77;;
20734;SDS011;10528;52.124;5.196;2022-12-19T01:01:36;31.83;;;21.10;;
20734;SDS011;10528;52.124;5.196;2022-12-19T01:04:07;32.17;;;21.70;;
20734;SDS011;10528;52.124;5.196;2022-12-19T01:06:56;31.63;;;20.85;;
20734;SDS011;10528;52.124;5.196;2022-12-19T01:09:30;33.92;;;21.05;;
20734;SDS011;10528;52.124;5.196;2022-12-19T01:11:59;32.35;;;20.38;;
20734;SDS011;10528;52.124;5.196;2022-12-19T01:14:46;31.65;;;21.08;;
20734;SDS011;10528;52.124;5.196;2022-12-19T01:17:13;32.53;;;21.00;;
20734;SDS011;10528;52.124;5.196;2022-12-19T01:19:40;34.65;;;20.60;;
20734;SDS011;10528;52.124;5.196;2022-12-19T01:22:10;32.63;;;19.83;;
20734;SDS011;10528;52.124;5.196;2022-12-19T01:24:39;33.38;;;20.52;;
20734;SDS011;10528;52.124;5.196;2022-12-19T01:27:06;31.83;;;19.67;;
20734;SDS011;10528;52.124;5.196;2022-12-19T01:29:33;32.92;;;20.90;;
20734;SDS011;10528;52.124;5.196;2022-12-19T01:32:09;34.72;;;22.05;;
20734;SDS011;10528;52.124;5.196;2022-12-19T01:34:36;32.20;;;21.40;;
20734;SDS011;10528;52.124;5.196;2022-12-19T01:37:03;34.35;;;21.90;;
20734;SDS011;10528;52.124;5.196;2022-12-19T01:39:30;37.88;;;22.00;;
20734;SDS011;10528;52.124;5.196;2022-12-19T01:41:59;34.75;;;22.40;;
20734;SDS011;10528;52.124;5.196;2022-12-19T01:44:27;33.47;;;21.02;;
20734;SDS011;10528;52.124;5.196;2022-12-19T01:46:54;37.95;;;23.33;;
20734;SDS011;10528;52.124;5.196;2022-12-19T01:49:30;39.92;;;23.67;;
20734;SDS011;10528;52.124;5.196;2022-12-19T01:52:01;38.80;;;23.45;;
20734;SDS011;10528;52.124;5.196;2022-12-19T01:54:40;37.78;;;22.48;;
20734;SDS011;10528;52.124;5.196;2022-12-19T01:57:07;35.20;;;20.80;;
20734;SDS011;10528;52.124;5.196;2022-12-19T01:59:42;41.35;;;22.38;;
20734;SDS011;10528;52.124;5.196;2022-12-19T02:02:18;34.70;;;22.30;;
20734;SDS011;10528;52.124;5.196;2022-12-19T02:04:54;37.15;;;21.20;;
20734;SDS011;10528;52.124;5.196;2022-12-19T02:07:21;35.17;;;21.13;;
20734;SDS011;10528;52.124;5.196;2022-12-19T02:09:55;39.55;;;21.35;;
20734;SDS011;10528;52.124;5.196;2022-12-19T02:12:33;35.30;;;21.48;;
20734;SDS011;10528;52.124;5.196;2022-12-19T02:15:07;38.53;;;22.05;;
20734;SDS011;10528;52.124;5.196;2022-12-19T02:17:43;36.03;;;22.10;;
20734;SDS011;10528;52.124;5.196;2022-12-19T02:25:47;34.72;;;19.85;;
20734;SDS011;10528;52.124;5.196;2022-12-19T02:31:46;32.00;;;18.85;;
20734;SDS011;10528;52.124;5.196;2022-12-19T02:34:31;35.28;;;19.15;;
20734;SDS011;10528;52.124;5.196;2022-12-19T02:37:23;33.33;;;19.52;;
20734;SDS011;10528;52.124;5.196;2022-12-19T02:43:13;32.08;;;18.15;;
20734;SDS011;10528;52.124;5.196;2022-12-19T02:45:43;31.88;;;18.65;;
20734;SDS011;10528;52.124;5.196;2022-12-19T02:48:12;30.63;;;18.02;;
20734;SDS011;10528;52.124;5.196;2022-12-19T02:50:45;33.50;;;18.80;;
20734;SDS011;10528;52.124;5.196;2022-12-19T02:53:16;27.73;;;17.67;;
20734;SDS011;10528;52.124;5.196;2022-12-19T03:04:56;35.42;;;17.38;;
20734;SDS011;10528;52.124;5.196;2022-12-19T03:07:41;30.95;;;17.08;;
20734;SDS011;10528;52.124;5.196;2022-12-19T03:13:09;34.08;;;18.15;;
20734;SDS011;10528;52.124;5.196;2022-12-19T03:15:48;29.20;;;16.85;;
20734;SDS011;10528;52.124;5.196;2022-12-19T03:18:16;31.08;;;18.80;;
20734;SDS011;10528;52.124;5.196;2022-12-19T03:20:46;27.42;;;16.65;;
20734;SDS011;10528;52.124;5.196;2022-12-19T03:23:45;29.65;;;17.38;;
20734;SDS011;10528;52.124;5.196;2022-12-19T03:26:16;29.67;;;17.63;;
20734;SDS011;10528;52.124;5.196;2022-12-19T03:28:51;26.75;;;15.88;;
20734;SDS011;10528;52.124;5.196;2022-12-19T03:31:26;29.77;;;18.17;;
20734;SDS011;10528;52.124;5.196;2022-12-19T03:34:02;26.20;;;16.30;;
20734;SDS011;10528;52.124;5.196;2022-12-19T03:36:40;27.15;;;16.58;;
20734;SDS011;10528;52.124;5.196;2022-12-19T03:39:12;25.65;;;16.42;;
20734;SDS011;10528;52.124;5.196;2022-12-19T03:41:42;26.85;;;15.75;;
20734;SDS011;10528;52.124;5.196;2022-12-19T03:44:32;26.02;;;15.65;;
20734;SDS011;10528;52.124;5.196;2022-12-19T03:47:08;24.83;;;15.55;;
20734;SDS011;10528;52.124;5.196;2022-12-19T03:50:03;25.27;;;15.02;;
20734;SDS011;10528;52.124;5.196;2022-12-19T03:55:04;22.33;;;13.90;;
20734;SDS011;10528;52.124;5.196;2022-12-19T03:57:49;26.35;;;13.48;;
20734;SDS011;10528;52.124;5.196;2022-12-19T04:00:23;21.90;;;13.82;;
20734;SDS011;10528;52.124;5.196;2022-12-19T04:02:53;19.10;;;12.82;;
20734;SDS011;10528;52.124;5.196;2022-12-19T04:05:24;20.55;;;13.02;;
20734;SDS011;10528;52.124;5.196;2022-12-19T04:07:54;18.92;;;12.57;;
20734;SDS011;10528;52.124;5.196;2022-12-19T04:10:28;21.08;;;13.65;;
20734;SDS011;10528;52.124;5.196;2022-12-19T04:12:58;21.20;;;12.50;;
20734;SDS011;10528;52.124;5.196;2022-12-19T04:15:33;19.23;;;13.10;;
20734;SDS011;10528;52.124;5.196;2022-12-19T04:18:19;19.20;;;13.05;;
20734;SDS011;10528;52.124;5.196;2022-12-19T04:20:49;19.42;;;12.23;;
20734;SDS011;10528;52.124;5.196;2022-12-19T04:24:15;20.38;;;12.18;;
20734;SDS011;10528;52.124;5.196;2022-12-19T04:26:53;18.98;;;12.18;;
20734;SDS011;10528;52.124;5.196;2022-12-19T04:29:23;18.00;;;12.15;;
20734;SDS011;10528;52.124;5.196;2022-12-19T04:31:54;17.73;;;11.07;;
20734;SDS011;10528;52.124;5.196;2022-12-19T04:34:22;15.55;;;11.15;;
20734;SDS011;10528;52.124;5.196;2022-12-19T04:36:49;15.40;;;10.73;;
20734;SDS011;10528;52.124;5.196;2022-12-19T04:39:16;15.82;;;10.40;;
20734;SDS011;10528;52.124;5.196;2022-12-19T04:41:43;17.52;;;11.30;;
20734;SDS011;10528;52.124;5.196;2022-12-19T04:44:10;17.25;;;10.98;;
20734;SDS011;10528;52.124;5.196;2022-12-19T04:46:37;16.30;;;11.13;;
20734;SDS011;10528;52.124;5.196;2022-12-19T04:49:04;17.40;;;11.23;;
20734;SDS011;10528;52.124;5.196;2022-12-19T04:51:31;15.90;;;10.65;;
20734;SDS011;10528;52.124;5.196;2022-12-19T04:53:58;16.70;;;11.27;;
20734;SDS011;10528;52.124;5.196;2022-12-19T04:56:25;16.50;;;10.85;;
20734;SDS011;10528;52.124;5.196;2022-12-19T04:58:58;15.10;;;10.45;;
20734;SDS011;10528;52.124;5.196;2022-12-19T05:01:26;14.60;;;9.77;;
20734;SDS011;10528;52.124;5.196;2022-12-19T05:03:53;17.23;;;10.73;;
20734;SDS011;10528;52.124;5.196;2022-12-19T05:06:26;14.13;;;9.77;;
20734;SDS011;10528;52.124;5.196;2022-12-19T05:08:53;13.43;;;9.88;;
20734;SDS011;10528;52.124;5.196;2022-12-19T05:11:20;13.05;;;8.95;;
20734;SDS011;10528;52.124;5.196;2022-12-19T05:13:47;14.30;;;9.45;;
20734;SDS011;10528;52.124;5.196;2022-12-19T05:16:15;11.93;;;8.85;;
20734;SDS011;10528;52.124;5.196;2022-12-19T05:18:42;13.35;;;8.60;;
20734;SDS011;10528;52.124;5.196;2022-12-19T05:21:10;13.18;;;9.50;;
20734;SDS011;10528;52.124;5.196;2022-12-19T05:23:37;12.88;;;9.13;;
20734;SDS011;10528;52.124;5.196;2022-12-19T05:26:04;11.27;;;8.43;;
20734;SDS011;10528;52.124;5.196;2022-12-19T05:28:32;12.30;;;8.82;;
20734;SDS011;10528;52.124;5.196;2022-12-19T05:31:10;12.18;;;8.60;;
20734;SDS011;10528;52.124;5.196;2022-12-19T05:33:45;14.35;;;9.02;;
20734;SDS011;10528;52.124;5.196;2022-12-19T05:36:14;10.65;;;7.90;;
20734;SDS011;10528;52.124;5.196;2022-12-19T05:38:42;14.07;;;9.27;;
20734;SDS011;10528;52.124;5.196;2022-12-19T05:41:13;11.65;;;8.07;;
20734;SDS011;10528;52.124;5.196;2022-12-19T05:43:43;11.57;;;8.38;;
20734;SDS011;10528;52.124;5.196;2022-12-19T05:46:14;12.40;;;8.75;;
20734;SDS011;10528;52.124;5.196;2022-12-19T05:48:41;11.48;;;8.20;;
20734;SDS011;10528;52.124;5.196;2022-12-19T05:51:08;11.18;;;7.90;;
20734;SDS011;10528;52.124;5.196;2022-12-19T05:53:35;13.45;;;9.00;;
20734;SDS011;10528;52.124;5.196;2022-12-19T05:56:10;9.35;;;7.47;;
20734;SDS011;10528;52.124;5.196;2022-12-19T05:58:41;11.55;;;8.13;;
20734;SDS011;10528;52.124;5.196;2022-12-19T06:01:10;11.23;;;8.15;;
20734;SDS011;10528;52.124;5.196;2022-12-19T06:03:40;11.57;;;8.35;;
20734;SDS011;10528;52.124;5.196;2022-12-19T06:06:08;9.73;;;7.82;;
20734;SDS011;10528;52.124;5.196;2022-12-19T06:08:38;11.40;;;8.93;;
20734;SDS011;10528;52.124;5.196;2022-12-19T06:11:06;10.93;;;8.40;;
20734;SDS011;10528;52.124;5.196;2022-12-19T06:13:35;11.20;;;7.85;;
20734;SDS011;10528;52.124;5.196;2022-12-19T06:16:04;11.25;;;8.23;;
20734;SDS011;10528;52.124;5.196;2022-12-19T06:18:38;11.43;;;8.55;;
20734;SDS011;10528;52.124;5.196;2022-12-19T06:21:14;11.27;;;7.68;;
20734;SDS011;10528;52.124;5.196;2022-12-19T06:23:44;11.60;;;8.77;;
20734;SDS011;10528;52.124;5.196;2022-12-19T06:26:13;13.63;;;8.90;;
20734;SDS011;10528;52.124;5.196;2022-12-19T06:28:45;9.57;;;8.05;;
20734;SDS011;10528;52.124;5.196;2022-12-19T06:31:14;11.65;;;8.50;;
20734;SDS011;10528;52.124;5.196;2022-12-19T06:33:42;11.13;;;8.63;;
20734;SDS011;10528;52.124;5.196;2022-12-19T06:36:10;11.80;;;9.07;;
20734;SDS011;10528;52.124;5.196;2022-12-19T06:38:52;11.85;;;8.35;;
20734;SDS011;10528;52.124;5.196;2022-12-19T06:41:23;11.88;;;8.70;;
20734;SDS011;10528;52.124;5.196;2022-12-19T06:44:25;11.57;;;8.63;;
20734;SDS011;10528;52.124;5.196;2022-12-19T06:46:52;10.35;;;8.50;;
20734;SDS011;10528;52.124;5.196;2022-12-19T06:49:19;13.13;;;8.77;;
20734;SDS011;10528;52.124;5.196;2022-12-19T06:51:46;12.35;;;8.32;;
20734;SDS011;10528;52.124;5.196;2022-12-19T06:54:13;10.45;;;8.25;;
20734;SDS011;10528;52.124;5.196;2022-12-19T06:56:41;11.05;;;8.50;;
20734;SDS011;10528;52.124;5.196;2022-12-19T06:59:12;11.10;;;8.82;;
20734;SDS011;10528;52.124;5.196;2022-12-19T07:01:49;12.05;;;9.38;;
20734;SDS011;10528;52.124;5.196;2022-12-19T07:04:46;11.75;;;9.07;;
20734;SDS011;10528;52.124;5.196;2022-12-19T07:07:20;14.35;;;9.85;;
20734;SDS011;10528;52.124;5.196;2022-12-19T07:09:47;11.50;;;8.80;;
20734;SDS011;10528;52.124;5.196;2022-12-19T07:12:14;12.18;;;9.35;;
20734;SDS011;10528;52.124;5.196;2022-12-19T07:14:41;12.95;;;9.50;;
20734;SDS011;10528;52.124;5.196;2022-12-19T07:17:08;14.32;;;10.02;;
20734;SDS011;10528;52.124;5.196;2022-12-19T07:19:35;13.18;;;9.80;;
20734;SDS011;10528;52.124;5.196;2022-12-19T07:22:02;14.25;;;10.25;;
20734;SDS011;10528;52.124;5.196;2022-12-19T07:24:30;14.30;;;10.40;;
20734;SDS011;10528;52.124;5.196;2022-12-19T07:27:00;14.20;;;9.48;;
20734;SDS011;10528;52.124;5.196;2022-12-19T07:29:28;12.38;;;9.60;;
20734;SDS011;10528;52.124;5.196;2022-12-19T07:31:54;13.55;;;9.90;;
20734;SDS011;10528;52.124;5.196;2022-12-19T07:34:22;14.40;;;10.20;;
20734;SDS011;10528;52.124;5.196;2022-12-19T07:36:50;13.27;;;9.50;;
20734;SDS011;10528;52.124;5.196;2022-12-19T07:39:17;17.67;;;10.25;;
20734;SDS011;10528;52.124;5.196;2022-12-19T07:41:44;13.15;;;9.48;;
20734;SDS011;10528;52.124;5.196;2022-12-19T07:44:11;12.77;;;9.18;;
20734;SDS011;10528;52.124;5.196;2022-12-19T07:46:38;13.18;;;9.07;;
20734;SDS011;10528;52.124;5.196;2022-12-19T07:49:05;13.77;;;9.73;;
20734;SDS011;10528;52.124;5.196;2022-12-19T07:51:32;12.25;;;9.00;;
20734;SDS011;10528;52.124;5.196;2022-12-19T07:53:59;12.60;;;8.90;;
20734;SDS011;10528;52.124;5.196;2022-12-19T07:56:29;13.30;;;9.25;;
20734;SDS011;10528;52.124;5.196;2022-12-19T07:58:57;12.38;;;9.25;;
20734;SDS011;10528;52.124;5.196;2022-12-19T08:01:26;12.25;;;9.15;;
20734;SDS011;10528;52.124;5.196;2022-12-19T08:03:54;13.20;;;9.45;;
20734;SDS011;10528;52.124;5.196;2022-12-19T08:06:22;11.20;;;8.27;;
20734;SDS011;10528;52.124;5.196;2022-12-19T08:08:49;13.88;;;8.50;;
20734;SDS011;10528;52.124;5.196;2022-12-19T08:11:17;10.73;;;8.57;;
20734;SDS011;10528;52.124;5.196;2022-12-19T08:13:52;13.85;;;8.77;;
20734;SDS011;10528;52.124;5.196;2022-12-19T08:16:20;13.05;;;8.77;;
20734;SDS011;10528;52.124;5.196;2022-12-19T08:18:49;12.18;;;8.80;;
20734;SDS011;10528;52.124;5.196;2022-12-19T08:21:16;11.98;;;8.45;;
20734;SDS011;10528;52.124;5.196;2022-12-19T08:23:43;12.00;;;8.35;;
20734;SDS011;10528;52.124;5.196;2022-12-19T08:26:14;12.35;;;8.80;;
20734;SDS011;10528;52.124;5.196;2022-12-19T08:28:51;12.50;;;8.57;;
20734;SDS011;10528;52.124;5.196;2022-12-19T08:31:21;12.93;;;8.75;;
20734;SDS011;10528;52.124;5.196;2022-12-19T08:33:51;13.27;;;8.38;;
20734;SDS011;10528;52.124;5.196;2022-12-19T08:36:21;11.68;;;8.20;;
20734;SDS011;10528;52.124;5.196;2022-12-19T08:38:50;12.68;;;8.52;;
20734;SDS011;10528;52.124;5.196;2022-12-19T08:41:17;12.32;;;8.23;;
20734;SDS011;10528;52.124;5.196;2022-12-19T08:43:48;11.23;;;8.55;;
20734;SDS011;10528;52.124;5.196;2022-12-19T08:46:18;11.77;;;8.40;;
20734;SDS011;10528;52.124;5.196;2022-12-19T08:48:46;11.50;;;8.43;;
20734;SDS011;10528;52.124;5.196;2022-12-19T08:51:14;13.52;;;9.65;;
20734;SDS011;10528;52.124;5.196;2022-12-19T08:53:43;14.73;;;9.07;;
20734;SDS011;10528;52.124;5.196;2022-12-19T08:56:12;11.20;;;8.40;;
20734;SDS011;10528;52.124;5.196;2022-12-19T08:58:45;12.02;;;8.45;;
20734;SDS011;10528;52.124;5.196;2022-12-19T09:01:15;11.55;;;8.27;;
20734;SDS011;10528;52.124;5.196;2022-12-19T09:03:45;18.77;;;9.82;;
20734;SDS011;10528;52.124;5.196;2022-12-19T09:06:32;12.35;;;8.93;;
20734;SDS011;10528;52.124;5.196;2022-12-19T09:09:00;10.95;;;8.00;;
20734;SDS011;10528;52.124;5.196;2022-12-19T09:11:29;11.52;;;8.48;;
20734;SDS011;10528;52.124;5.196;2022-12-19T09:13:56;12.48;;;8.77;;
20734;SDS011;10528;52.124;5.196;2022-12-19T09:16:24;12.60;;;7.90;;
20734;SDS011;10528;52.124;5.196;2022-12-19T09:18:54;11.85;;;7.78;;
20734;SDS011;10528;52.124;5.196;2022-12-19T09:21:24;9.82;;;7.68;;
20734;SDS011;10528;52.124;5.196;2022-12-19T09:23:55;11.15;;;7.88;;
20734;SDS011;10528;52.124;5.196;2022-12-19T09:26:32;9.80;;;7.13;;
20734;SDS011;10528;52.124;5.196;2022-12-19T09:29:00;9.30;;;7.07;;
20734;SDS011;10528;52.124;5.196;2022-12-19T09:31:46;11.23;;;7.47;;
20734;SDS011;10528;52.124;5.196;2022-12-19T09:34:25;11.43;;;7.88;;
20734;SDS011;10528;52.124;5.196;2022-12-19T09:37:07;9.73;;;7.25;;
20734;SDS011;10528;52.124;5.196;2022-12-19T09:39:43;11.48;;;7.40;;
20734;SDS011;10528;52.124;5.196;2022-12-19T09:42:27;10.25;;;6.97;;
20734;SDS011;10528;52.124;5.196;2022-12-19T09:48:12;11.63;;;7.28;;
20734;SDS011;10528;52.124;5.196;2022-12-19T09:50:55;10.30;;;7.20;;
20734;SDS011;10528;52.124;5.196;2022-12-19T09:53:43;11.50;;;6.90;;
20734;SDS011;10528;52.124;5.196;2022-12-19T09:56:25;9.13;;;6.63;;
20734;SDS011;10528;52.124;5.196;2022-12-19T09:59:18;13.10;;;7.18;;
20734;SDS011;10528;52.124;5.196;2022-12-19T10:08:42;8.68;;;6.35;;
20734;SDS011;10528;52.124;5.196;2022-12-19T10:11:37;11.35;;;7.25;;
20734;SDS011;10528;52.124;5.196;2022-12-19T10:18:31;10.50;;;7.30;;
20734;SDS011;10528;52.124;5.196;2022-12-19T10:21:27;11.40;;;6.97;;
20734;SDS011;10528;52.124;5.196;2022-12-19T10:27:48;10.52;;;6.88;;
20734;SDS011;10528;52.124;5.196;2022-12-19T10:30:28;10.00;;;6.75;;
20734;SDS011;10528;52.124;5.196;2022-12-19T10:33:12;15.30;;;7.10;;
20734;SDS011;10528;52.124;5.196;2022-12-19T10:35:59;8.50;;;6.53;;
20734;SDS011;10528;52.124;5.196;2022-12-19T10:41:21;8.35;;;6.40;;
20734;SDS011;10528;52.124;5.196;2022-12-19T10:44:00;11.75;;;6.88;;
20734;SDS011;10528;52.124;5.196;2022-12-19T10:46:43;12.57;;;6.78;;
20734;SDS011;10528;52.124;5.196;2022-12-19T10:49:17;9.30;;;6.57;;
20734;SDS011;10528;52.124;5.196;2022-12-19T10:52:00;8.10;;;6.20;;
20734;SDS011;10528;52.124;5.196;2022-12-19T11:02:48;8.48;;;6.13;;
20734;SDS011;10528;52.124;5.196;2022-12-19T11:05:30;7.75;;;5.20;;
20734;SDS011;10528;52.124;5.196;2022-12-19T11:08:26;11.05;;;6.45;;
20734;SDS011;10528;52.124;5.196;2022-12-19T11:13:51;9.45;;;6.22;;
20734;SDS011;10528;52.124;5.196;2022-12-19T11:16:37;13.38;;;6.60;;
20734;SDS011;10528;52.124;5.196;2022-12-19T11:22:23;9.07;;;5.78;;
20734;SDS011;10528;52.124;5.196;2022-12-19T11:25:18;9.38;;;6.30;;
20734;SDS011;10528;52.124;5.196;2022-12-19T11:28:19;7.53;;;5.88;;
20734;SDS011;10528;52.124;5.196;2022-12-19T11:31:15;8.23;;;5.60;;
20734;SDS011;10528;52.124;5.196;2022-12-19T11:34:17;9.25;;;6.10;;
20734;SDS011;10528;52.124;5.196;2022-12-19T11:36:51;12.52;;;6.22;;
20734;SDS011;10528;52.124;5.196;2022-12-19T11:39:47;8.20;;;5.35;;
20734;SDS011;10528;52.124;5.196;2022-12-19T11:42:49;8.32;;;6.10;;
20734;SDS011;10528;52.124;5.196;2022-12-19T11:45:55;10.13;;;5.65;;
20734;SDS011;10528;52.124;5.196;2022-12-19T11:51:36;7.30;;;4.97;;
20734;SDS011;10528;52.124;5.196;2022-12-19T11:54:29;7.32;;;5.88;;
20734;SDS011;10528;52.124;5.196;2022-12-19T11:57:10;8.13;;;5.93;;
20734;SDS011;10528;52.124;5.196;2022-12-19T11:59:38;8.55;;;5.53;;
20734;SDS011;10528;52.124;5.196;2022-12-19T12:11:26;8.93;;;5.60;;
20734;SDS011;10528;52.124;5.196;2022-12-19T12:14:20;8.05;;;5.55;;
20734;SDS011;10528;52.124;5.196;2022-12-19T12:17:27;7.07;;;5.18;;
20734;SDS011;10528;52.124;5.196;2022-12-19T12:20:47;9.48;;;5.63;;
20734;SDS011;10528;52.124;5.196;2022-12-19T12:26:55;6.55;;;4.85;;
20734;SDS011;10528;52.124;5.196;2022-12-19T12:33:18;7.35;;;5.38;;
20734;SDS011;10528;52.124;5.196;2022-12-19T12:36:25;8.88;;;5.15;;
20734;SDS011;10528;52.124;5.196;2022-12-19T12:39:31;7.22;;;4.97;;
20734;SDS011;10528;52.124;5.196;2022-12-19T12:45:17;7.88;;;4.95;;
20734;SDS011;10528;52.124;5.196;2022-12-19T12:48:01;13.25;;;6.30;;
20734;SDS011;10528;52.124;5.196;2022-12-19T12:50:28;8.18;;;5.00;;
20734;SDS011;10528;52.124;5.196;2022-12-19T12:53:06;7.30;;;4.72;;
20734;SDS011;10528;52.124;5.196;2022-12-19T12:55:38;8.88;;;4.90;;
20734;SDS011;10528;52.124;5.196;2022-12-19T13:01:16;7.38;;;4.60;;
20734;SDS011;10528;52.124;5.196;2022-12-19T13:04:01;8.05;;;4.80;;
20734;SDS011;10528;52.124;5.196;2022-12-19T13:11:48;7.97;;;4.85;;
20734;SDS011;10528;52.124;5.196;2022-12-19T13:30:32;7.20;;;4.60;;
20734;SDS011;10528;52.124;5.196;2022-12-19T13:33:20;5.88;;;4.50;;
20734;SDS011;10528;52.124;5.196;2022-12-19T13:35:47;5.93;;;4.28;;
20734;SDS011;10528;52.124;5.196;2022-12-19T13:38:42;7.93;;;4.65;;
20734;SDS011;10528;52.124;5.196;2022-12-19T13:41:39;8.30;;;5.05;;
20734;SDS011;10528;52.124;5.196;2022-12-19T13:44:26;8.55;;;4.57;;
20734;SDS011;10528;52.124;5.196;2022-12-19T13:47:06;5.65;;;4.10;;
20734;SDS011;10528;52.124;5.196;2022-12-19T13:49:36;9.30;;;4.93;;
20734;SDS011;10528;52.124;5.196;2022-12-19T13:52:03;5.78;;;3.95;;
20734;SDS011;10528;52.124;5.196;2022-12-19T13:54:35;6.18;;;4.38;;
20734;SDS011;10528;52.124;5.196;2022-12-19T13:57:30;6.93;;;4.30;;
20734;SDS011;10528;52.124;5.196;2022-12-19T13:59:58;6.10;;;4.40;;
20734;SDS011;10528;52.124;5.196;2022-12-19T14:02:40;6.75;;;4.10;;
20734;SDS011;10528;52.124;5.196;2022-12-19T14:05:31;6.85;;;4.30;;
20734;SDS011;10528;52.124;5.196;2022-12-19T14:08:23;8.43;;;4.50;;
20734;SDS011;10528;52.124;5.196;2022-12-19T14:10:53;6.45;;;4.40;;
20734;SDS011;10528;52.124;5.196;2022-12-19T14:13:42;6.63;;;4.20;;
20734;SDS011;10528;52.124;5.196;2022-12-19T14:16:47;8.18;;;4.20;;
20734;SDS011;10528;52.124;5.196;2022-12-19T14:19:23;6.88;;;3.65;;
20734;SDS011;10528;52.124;5.196;2022-12-19T14:21:54;9.35;;;4.68;;
20734;SDS011;10528;52.124;5.196;2022-12-19T14:24:58;6.47;;;3.63;;
20734;SDS011;10528;52.124;5.196;2022-12-19T14:27:55;8.13;;;4.07;;
20734;SDS011;10528;52.124;5.196;2022-12-19T14:31:02;8.38;;;4.50;;
20734;SDS011;10528;52.124;5.196;2022-12-19T14:33:35;8.07;;;4.13;;
20734;SDS011;10528;52.124;5.196;2022-12-19T14:36:31;6.15;;;3.92;;
20734;SDS011;10528;52.124;5.196;2022-12-19T14:39:00;7.20;;;4.05;;
20734;SDS011;10528;52.124;5.196;2022-12-19T14:41:48;6.45;;;4.35;;
20734;SDS011;10528;52.124;5.196;2022-12-19T14:44:45;6.68;;;3.80;;
20734;SDS011;10528;52.124;5.196;2022-12-19T14:47:40;9.93;;;4.05;;
20734;SDS011;10528;52.124;5.196;2022-12-19T14:50:37;7.25;;;3.80;;
20734;SDS011;10528;52.124;5.196;2022-12-19T14:53:24;7.18;;;4.22;;
20734;SDS011;10528;52.124;5.196;2022-12-19T14:56:19;6.57;;;3.92;;
20734;SDS011;10528;52.124;5.196;2022-12-19T15:04:39;4.95;;;3.58;;
20734;SDS011;10528;52.124;5.196;2022-12-19T15:07:20;6.90;;;3.90;;
20734;SDS011;10528;52.124;5.196;2022-12-19T15:16:20;6.15;;;3.72;;
20734;SDS011;10528;52.124;5.196;2022-12-19T15:19:01;5.63;;;3.67;;
20734;SDS011;10528;52.124;5.196;2022-12-19T15:21:35;6.20;;;3.67;;
20734;SDS011;10528;52.124;5.196;2022-12-19T15:24:02;7.20;;;3.92;;
20734;SDS011;10528;52.124;5.196;2022-12-19T15:26:32;8.60;;;4.60;;
20734;SDS011;10528;52.124;5.196;2022-12-19T15:29:01;8.13;;;4.10;;
20734;SDS011;10528;52.124;5.196;2022-12-19T15:31:36;6.88;;;3.95;;
20734;SDS011;10528;52.124;5.196;2022-12-19T15:34:19;8.77;;;4.30;;
20734;SDS011;10528;52.124;5.196;2022-12-19T15:37:12;8.55;;;4.50;;
20734;SDS011;10528;52.124;5.196;2022-12-19T15:39:42;6.65;;;4.15;;
20734;SDS011;10528;52.124;5.196;2022-12-19T15:42:19;8.57;;;4.45;;
20734;SDS011;10528;52.124;5.196;2022-12-19T15:44:50;7.40;;;3.90;;
20734;SDS011;10528;52.124;5.196;2022-12-19T15:47:31;7.65;;;4.32;;
20734;SDS011;10528;52.124;5.196;2022-12-19T15:50:13;7.05;;;4.35;;
20734;SDS011;10528;52.124;5.196;2022-12-19T15:52:47;10.23;;;4.10;;
20734;SDS011;10528;52.124;5.196;2022-12-19T15:55:17;5.03;;;3.47;;
20734;SDS011;10528;52.124;5.196;2022-12-19T15:57:54;7.03;;;4.22;;
20734;SDS011;10528;52.124;5.196;2022-12-19T16:00:30;5.75;;;3.58;;
20734;SDS011;10528;52.124;5.196;2022-12-19T16:03:01;5.40;;;3.90;;
20734;SDS011;10528;52.124;5.196;2022-12-19T16:05:48;6.28;;;3.70;;
20734;SDS011;10528;52.124;5.196;2022-12-19T16:08:16;6.47;;;4.07;;
20734;SDS011;10528;52.124;5.196;2022-12-19T16:10:50;5.22;;;3.47;;
20734;SDS011;10528;52.124;5.196;2022-12-19T16:13:27;5.82;;;3.63;;
20734;SDS011;10528;52.124;5.196;2022-12-19T16:15:59;6.60;;;4.10;;
20734;SDS011;10528;52.124;5.196;2022-12-19T16:18:41;8.05;;;4.00;;
20734;SDS011;10528;52.124;5.196;2022-12-19T16:21:20;8.63;;;4.50;;
20734;SDS011;10528;52.124;5.196;2022-12-19T16:23:59;6.53;;;4.20;;
20734;SDS011;10528;52.124;5.196;2022-12-19T16:26:30;5.15;;;3.50;;
20734;SDS011;10528;52.124;5.196;2022-12-19T16:29:02;6.07;;;4.00;;
20734;SDS011;10528;52.124;5.196;2022-12-19T16:31:30;6.90;;;4.45;;
20734;SDS011;10528;52.124;5.196;2022-12-19T16:33:57;7.20;;;4.13;;
20734;SDS011;10528;52.124;5.196;2022-12-19T16:36:23;7.18;;;4.30;;
20734;SDS011;10528;52.124;5.196;2022-12-19T16:38:51;6.72;;;3.50;;
20734;SDS011;10528;52.124;5.196;2022-12-19T16:41:20;6.03;;;3.97;;
20734;SDS011;10528;52.124;5.196;2022-12-19T16:43:50;6.68;;;3.85;;
20734;SDS011;10528;52.124;5.196;2022-12-19T16:46:21;7.15;;;3.92;;
20734;SDS011;10528;52.124;5.196;2022-12-19T16:48:51;9.80;;;4.40;;
20734;SDS011;10528;52.124;5.196;2022-12-19T16:51:19;5.65;;;3.55;;
20734;SDS011;10528;52.124;5.196;2022-12-19T16:53:53;6.25;;;4.13;;
20734;SDS011;10528;52.124;5.196;2022-12-19T16:56:29;6.78;;;3.97;;
20734;SDS011;10528;52.124;5.196;2022-12-19T16:59:04;7.93;;;4.13;;
20734;SDS011;10528;52.124;5.196;2022-12-19T17:01:41;5.18;;;3.65;;
20734;SDS011;10528;52.124;5.196;2022-12-19T17:04:14;6.80;;;4.03;;
20734;SDS011;10528;52.124;5.196;2022-12-19T17:06:45;6.13;;;4.28;;
20734;SDS011;10528;52.124;5.196;2022-12-19T17:09:12;7.70;;;3.90;;
20734;SDS011;10528;52.124;5.196;2022-12-19T17:11:47;6.63;;;3.92;;
20734;SDS011;10528;52.124;5.196;2022-12-19T17:14:26;5.55;;;3.60;;
20734;SDS011;10528;52.124;5.196;2022-12-19T17:16:57;7.50;;;4.10;;
20734;SDS011;10528;52.124;5.196;2022-12-19T17:19:32;8.65;;;3.95;;
20734;SDS011;10528;52.124;5.196;2022-12-19T17:22:10;5.25;;;3.85;;
20734;SDS011;10528;52.124;5.196;2022-12-19T17:24:40;5.65;;;3.85;;